Terminal Aerodrome Forecast
Issued by NWS Albany, NY

Home | Current Version | Previous Version | Text Only | Print | Product List | Glossary On
Versions: 1 2 3 4 5 6 7 8 9 10 11 12 13 14 15 16 17 18 19 20 21 22 23 24 25 26 27 28 29 30 31
000
FTUS41 KALY 161600 AAD
TAFPOU
TAF AMD
KPOU 161611Z 1616/1712 VRB03KT P6SM FEW015 BKN080
      TEMPO 1616/1618 BKN015 BKN080
     FM161800 30004KT P6SM SCT050
     FM170000 00000KT P6SM SKC=

USA.gov is the U.S. government's official web portal to all federal, state and local government web resources and services.